UAE8412 OMDB-ZGGG
Flight info
| Callsign | UAE8412 |
|---|---|
| Flight time | N/A |
| Altitude | 35000 |
| Route | IVURO M677 LALDO B505 NADSO A777 VAXIM L301 RASKI L639 BPL A791 JJS Q19 CEA B465 CTG A599 LINSO/K0915S1065 A599 GYA GYA8 |
| Aircraft | B77W/H-SDE1E2E3FGHIJ2J3J4J5M1RWXY/LB1D1 |
Departure
| Time | 2026-05-05 04:17 |
|---|---|
| Airport | Dubai International Airport (OMDB) |
Arrival
| Time | N/A |
|---|---|
| Airport | Guangzhou Baiyun International Airport (ZGGG) |
| Time | Latitude | Longitude | Altitude | Speed | Heading |
|---|---|---|---|---|---|
| 2026-05-05 04:07 | 25.24268 | 55.37519 | 50 ft | 0 kts | 211° |
| 2026-05-05 04:09 | 25.24277 | 55.37526 | 50 ft | 2 kts | 212° |
| 2026-05-05 04:09 | 25.24290 | 55.37535 | 50 ft | 2 kts | 223° |
| 2026-05-05 04:09 | 25.24300 | 55.37547 | 50 ft | 2 kts | 233° |
| 2026-05-05 04:10 | 25.24308 | 55.37561 | 49 ft | 2 kts | 243° |
| 2026-05-05 04:10 | 25.24313 | 55.37576 | 49 ft | 2 kts | 253° |
| 2026-05-05 04:10 | 25.24317 | 55.37593 | 49 ft | 2 kts | 263° |
| 2026-05-05 04:10 | 25.24318 | 55.37609 | 49 ft | 2 kts | 272° |
| 2026-05-05 04:11 | 25.24316 | 55.37625 | 49 ft | 2 kts | 282° |
| 2026-05-05 04:11 | 25.24312 | 55.37641 | 50 ft | 2 kts | 292° |
| 2026-05-05 04:11 | 25.24306 | 55.37654 | 50 ft | 0 kts | 301° |
| 2026-05-05 04:11 | 25.24305 | 55.37656 | 50 ft | 0 kts | 302° |
| 2026-05-05 04:13 | 25.24309 | 55.37650 | 50 ft | 4 kts | 302° |
| 2026-05-05 04:13 | 25.24340 | 55.37596 | 49 ft | 12 kts | 306° |
| 2026-05-05 04:13 | 25.24421 | 55.37534 | 52 ft | 15 kts | 329° |
| 2026-05-05 04:14 | 25.24513 | 55.37459 | 58 ft | 17 kts | 307° |
| 2026-05-05 04:14 | 25.24584 | 55.37339 | 64 ft | 19 kts | 301° |
| 2026-05-05 04:14 | 25.24660 | 55.37204 | 70 ft | 21 kts | 301° |
| 2026-05-05 04:14 | 25.24742 | 55.37052 | 76 ft | 23 kts | 303° |
| 2026-05-05 04:15 | 25.24834 | 55.36887 | 78 ft | 28 kts | 295° |
| 2026-05-05 04:15 | 25.24891 | 55.36671 | 64 ft | 30 kts | 292° |
| 2026-05-05 04:15 | 25.24997 | 55.36472 | 52 ft | 30 kts | 301° |
| 2026-05-05 04:15 | 25.25119 | 55.36337 | 40 ft | 22 kts | 11° |
| 2026-05-05 04:16 | 25.25237 | 55.36412 | 41 ft | 16 kts | 39° |
| 2026-05-05 04:16 | 25.25250 | 55.36497 | 45 ft | 8 kts | 117° |
| 2026-05-05 04:16 | 25.25229 | 55.36538 | 48 ft | 4 kts | 121° |
| 2026-05-05 04:16 | 25.25141 | 55.36689 | 57 ft | 62 kts | 122° |
| 2026-05-05 04:17 | 25.24756 | 55.37382 | 62 ft | 150 kts | 122° |
| 2026-05-05 04:17 | 25.24084 | 55.38599 | 270 ft | 212 kts | 122° |
| 2026-05-05 04:17 | 25.23297 | 55.40042 | 1340 ft | 223 kts | 121° |
| 2026-05-05 04:17 | 25.22563 | 55.41328 | 2746 ft | 196 kts | 121° |
| 2026-05-05 04:18 | 25.21796 | 55.42636 | 3284 ft | 213 kts | 119° |
| 2026-05-05 04:18 | 25.21003 | 55.44092 | 3861 ft | 229 kts | 118° |
| 2026-05-05 04:18 | 25.20274 | 55.45683 | 4615 ft | 234 kts | 102° |
| 2026-05-05 04:18 | 25.20070 | 55.47521 | 5467 ft | 236 kts | 90° |
| 2026-05-05 04:19 | 25.20019 | 55.49400 | 6360 ft | 239 kts | 89° |
| 2026-05-05 04:19 | 25.19975 | 55.51248 | 7205 ft | 242 kts | 89° |
| 2026-05-05 04:19 | 25.19925 | 55.53185 | 7890 ft | 252 kts | 89° |